PWSweather.com
Personal Weather Stations
Station Observations
KVACHEST22
Carter's Mill, Chesterfield, VA 23838

Carter's MillChesterfield, VA 23838

Lat: 37.342658, Lon: -77.646073

Elevation: 282

Station Type: Oregon Scientific WMR88A

http://www.sowersnet.com/weatherstation/

Latest ConditionsUpdated 7:05:00 PM EST Wednesday, Mar 4, 2015
Currently Today's Max Today's Min Today's Average
Temperature 56.8°F13.8°C 63.0°F17.2°C 38.8°F3.8°C 52.5°F11.4°C
Dew Point 49.0°F9.4°C 53.5°F11.9°C 38.3°F3.5°C 48.6°F9.2°C
Winds - N16091.8 kmh N Calm Calm - Calm Calm
Wind Gusts -- -- - -
Humidity 75% 98% 66% 87%
Pressure 29.59 in1002.0 mb 29.71 in1006.1 mb 29.59 in1002.0 mb -
Hour Temp Dew Point Humidity Winds Wind Gusts Pressure Precip Precip Rate Daily Precip Total
07:05 PM 56.8°F13.8°C 49.0°F9.4°C 75% - N16091.8 kmh N -- 29.59 in1002.0 mb 0.00 in0.0 mm 0.00 in/hr0.0 mm/hr 0.00 in0.0 mm
07:00 PM 56.8°F13.8°C 49.0°F9.4°C 75% - N16091.8 kmh N -- 29.59 in1002.0 mb 0.00 in0.0 mm 0.00 in/hr0.0 mm/hr 0.00 in0.0 mm
06:55 PM 57.0°F13.9°C 48.8°F9.3°C 74% - N16091.8 kmh N -- 29.59 in1002.0 mb 0.00 in0.0 mm 0.00 in/hr0.0 mm/hr 0.00 in0.0 mm
06:50 PM 57.1°F13.9°C 48.8°F9.3°C 74% - N16091.8 kmh N -- 29.59 in1002.0 mb 0.00 in0.0 mm 0.00 in/hr0.0 mm/hr 0.00 in0.0 mm
06:45 PM 57.3°F14.1°C 48.7°F9.3°C 73% - N16091.8 kmh N -- 29.59 in1002.0 mb 0.00 in0.0 mm 0.00 in/hr0.0 mm/hr 0.00 in0.0 mm
06:40 PM 57.4°F14.1°C 48.8°F9.3°C 73% - N16091.8 kmh N -- 29.59 in1002.0 mb 0.00 in0.0 mm 0.00 in/hr0.0 mm/hr 0.00 in0.0 mm
06:35 PM 57.6°F14.2°C 49.0°F9.4°C 73% - N16091.8 kmh N -- 29.59 in1002.0 mb 0.00 in0.0 mm 0.00 in/hr0.0 mm/hr 0.00 in0.0 mm
06:30 PM 57.6°F14.2°C 48.8°F9.3°C 72% - N16091.8 kmh N -- 29.59 in1002.0 mb 0.00 in0.0 mm 0.00 in/hr0.0 mm/hr 0.00 in0.0 mm
06:25 PM 57.8°F14.3°C 48.9°F9.4°C 72% - N16091.8 kmh N -- 29.59 in1002.0 mb 0.00 in0.0 mm 0.00 in/hr0.0 mm/hr 0.00 in0.0 mm
06:20 PM 58.0°F14.4°C 49.0°F9.4°C 72% - N16091.8 kmh N -- 29.59 in1002.0 mb 0.00 in0.0 mm 0.00 in/hr0.0 mm/hr 0.00 in0.0 mm
06:15 PM 58.3°F14.6°C 49.3°F9.6°C 72% - N16091.8 kmh N -- 29.59 in1002.0 mb 0.00 in0.0 mm 0.00 in/hr0.0 mm/hr 0.00 in0.0 mm
06:10 PM 58.4°F14.7°C 49.4°F9.7°C 72% - N16091.8 kmh N -- 29.59 in1002.0 mb 0.00 in0.0 mm 0.00 in/hr0.0 mm/hr 0.00 in0.0 mm
06:05 PM 58.5°F14.7°C 49.6°F9.8°C 72% - N16091.8 kmh N -- 29.59 in1002.0 mb 0.00 in0.0 mm 0.00 in/hr0.0 mm/hr 0.00 in0.0 mm
06:00 PM 58.6°F14.8°C 49.6°F9.8°C 72% - N16091.8 kmh N -- 29.59 in1002.0 mb 0.00 in0.0 mm 0.00 in/hr0.0 mm/hr 0.00 in0.0 mm
05:55 PM 58.7°F14.8°C 49.7°F9.8°C 72% - N16091.8 kmh N -- 29.59 in1002.0 mb 0.00 in0.0 mm 0.00 in/hr0.0 mm/hr 0.00 in0.0 mm
05:50 PM 58.8°F14.9°C 49.8°F9.9°C 72% - N16091.8 kmh N -- 29.59 in1002.0 mb 0.00 in0.0 mm 0.00 in/hr0.0 mm/hr 0.00 in0.0 mm
05:45 PM 59.0°F15.0°C 49.6°F9.8°C 71% - N16091.8 kmh N -- 29.59 in1002.0 mb 0.00 in0.0 mm 0.00 in/hr0.0 mm/hr 0.00 in0.0 mm
05:40 PM 59.2°F15.1°C 49.8°F9.9°C 71% - N16091.8 kmh N -- 29.59 in1002.0 mb 0.00 in0.0 mm 0.00 in/hr0.0 mm/hr 0.00 in0.0 mm
05:35 PM 59.4°F15.2°C 50.0°F10.0°C 71% - N16091.8 kmh N -- 29.59 in1002.0 mb 0.00 in0.0 mm 0.00 in/hr0.0 mm/hr 0.00 in0.0 mm
05:30 PM 59.4°F15.2°C 50.0°F10.0°C 71% - N16091.8 kmh N -- 29.59 in1002.0 mb 0.00 in0.0 mm 0.00 in/hr0.0 mm/hr 0.00 in0.0 mm
05:25 PM 59.5°F15.3°C 50.1°F10.1°C 71% - N16091.8 kmh N -- 29.59 in1002.0 mb 0.00 in0.0 mm 0.00 in/hr0.0 mm/hr 0.00 in0.0 mm
05:20 PM 59.6°F15.3°C 50.2°F10.1°C 71% - N16091.8 kmh N -- 29.59 in1002.0 mb 0.00 in0.0 mm 0.00 in/hr0.0 mm/hr 0.00 in0.0 mm
05:15 PM 59.8°F15.4°C 50.4°F10.2°C 71% - N16091.8 kmh N -- 29.59 in1002.0 mb 0.00 in0.0 mm 0.00 in/hr0.0 mm/hr 0.00 in0.0 mm
05:10 PM 59.9°F15.5°C 50.5°F10.3°C 71% - N16091.8 kmh N -- 29.59 in1002.0 mb 0.00 in0.0 mm 0.00 in/hr0.0 mm/hr 0.00 in0.0 mm
05:05 PM 60.1°F15.6°C 50.6°F10.3°C 71% - N16091.8 kmh N -- 29.59 in1002.0 mb 0.00 in0.0 mm 0.00 in/hr0.0 mm/hr 0.00 in0.0 mm
05:00 PM 60.3°F15.7°C 50.8°F10.4°C 71% - N16091.8 kmh N -- 29.59 in1002.0 mb 0.00 in0.0 mm 0.00 in/hr0.0 mm/hr 0.00 in0.0 mm
04:55 PM 60.3°F15.7°C 50.8°F10.4°C 71% - N16091.8 kmh N -- 29.59 in1002.0 mb 0.00 in0.0 mm 0.00 in/hr0.0 mm/hr 0.00 in0.0 mm
04:50 PM 60.4°F15.8°C 51.0°F10.6°C 71% - N16091.8 kmh N -- 29.59 in1002.0 mb 0.00 in0.0 mm 0.00 in/hr0.0 mm/hr 0.00 in0.0 mm
04:45 PM 60.4°F15.8°C 51.0°F10.6°C 71% - N16091.8 kmh N -- 29.59 in1002.0 mb 0.00 in0.0 mm 0.00 in/hr0.0 mm/hr 0.00 in0.0 mm
04:40 PM 60.4°F15.8°C 51.0°F10.6°C 71% - N16091.8 kmh N -- 29.59 in1002.0 mb 0.00 in0.0 mm 0.00 in/hr0.0 mm/hr 0.00 in0.0 mm
04:35 PM 60.6°F15.9°C 51.2°F10.7°C 71% - N16091.8 kmh N -- 29.59 in1002.0 mb 0.00 in0.0 mm 0.00 in/hr0.0 mm/hr 0.00 in0.0 mm
04:30 PM 60.7°F15.9°C 51.1°F10.6°C 71% - N16091.8 kmh N -- 29.59 in1002.0 mb 0.00 in0.0 mm 0.00 in/hr0.0 mm/hr 0.00 in0.0 mm
04:25 PM 60.8°F16.0°C 51.0°F10.6°C 70% - N16091.8 kmh N -- 29.59 in1002.0 mb 0.00 in0.0 mm 0.00 in/hr0.0 mm/hr 0.00 in0.0 mm
04:20 PM 61.0°F16.1°C 51.1°F10.6°C 70% - N16091.8 kmh N -- 29.59 in1002.0 mb 0.00 in0.0 mm 0.00 in/hr0.0 mm/hr 0.00 in0.0 mm
04:15 PM 61.0°F16.1°C 51.1°F10.6°C 70% - N16091.8 kmh N -- 29.59 in1002.0 mb 0.00 in0.0 mm 0.00 in/hr0.0 mm/hr 0.00 in0.0 mm
04:10 PM 61.0°F16.1°C 51.1°F10.6°C 70% - N16091.8 kmh N -- 29.59 in1002.0 mb 0.00 in0.0 mm 0.00 in/hr0.0 mm/hr 0.00 in0.0 mm
04:05 PM 61.2°F16.2°C 51.3°F10.7°C 70% - N16091.8 kmh N -- 29.59 in1002.0 mb 0.00 in0.0 mm 0.00 in/hr0.0 mm/hr 0.00 in0.0 mm
04:00 PM 61.2°F16.2°C 51.3°F10.7°C 70% - N16091.8 kmh N -- 29.59 in1002.0 mb 0.00 in0.0 mm 0.00 in/hr0.0 mm/hr 0.00 in0.0 mm
03:55 PM 61.2°F16.2°C 51.1°F10.6°C 70% - N16091.8 kmh N -- 29.59 in1002.0 mb 0.00 in0.0 mm 0.00 in/hr0.0 mm/hr 0.00 in0.0 mm
03:50 PM 61.1°F16.2°C 50.8°F10.4°C 69% - N16091.8 kmh N -- 29.59 in1002.0 mb 0.00 in0.0 mm 0.00 in/hr0.0 mm/hr 0.00 in0.0 mm
03:45 PM 61.2°F16.2°C 50.9°F10.5°C 69% - N16091.8 kmh N -- 29.59 in1002.0 mb 0.00 in0.0 mm 0.00 in/hr0.0 mm/hr 0.00 in0.0 mm
03:40 PM 61.2°F16.2°C 50.9°F10.5°C 69% - N16091.8 kmh N -- 29.59 in1002.0 mb 0.00 in0.0 mm 0.00 in/hr0.0 mm/hr 0.00 in0.0 mm
03:35 PM 61.3°F16.3°C 51.0°F10.6°C 69% - N16091.8 kmh N -- 29.59 in1002.0 mb 0.00 in0.0 mm 0.00 in/hr0.0 mm/hr 0.00 in0.0 mm
03:30 PM 61.4°F16.3°C 50.9°F10.5°C 68% - N16091.8 kmh N -- 29.59 in1002.0 mb 0.00 in0.0 mm 0.00 in/hr0.0 mm/hr 0.00 in0.0 mm
03:25 PM 61.7°F16.5°C 51.0°F10.6°C 68% - N16091.8 kmh N -- 29.59 in1002.0 mb 0.00 in0.0 mm 0.00 in/hr0.0 mm/hr 0.00 in0.0 mm
03:20 PM 61.7°F16.5°C 51.3°F10.7°C 69% - N16091.8 kmh N -- 29.59 in1002.0 mb 0.00 in0.0 mm 0.00 in/hr0.0 mm/hr 0.00 in0.0 mm
03:15 PM 61.9°F16.6°C 51.2°F10.7°C 68% - N16091.8 kmh N -- 29.59 in1002.0 mb 0.00 in0.0 mm 0.00 in/hr0.0 mm/hr 0.00 in0.0 mm
03:10 PM 62.1°F16.7°C 51.4°F10.8°C 68% - N16091.8 kmh N -- 29.59 in1002.0 mb 0.00 in0.0 mm 0.00 in/hr0.0 mm/hr 0.00 in0.0 mm
03:05 PM 62.2°F16.8°C 51.5°F10.8°C 68% - N16091.8 kmh N -- 29.59 in1002.0 mb 0.00 in0.0 mm 0.00 in/hr0.0 mm/hr 0.00 in0.0 mm
03:00 PM 62.2°F16.8°C 50.9°F10.5°C 66% - N16091.8 kmh N -- 29.59 in1002.0 mb 0.00 in0.0 mm 0.00 in/hr0.0 mm/hr 0.00 in0.0 mm
02:55 PM 62.3°F16.8°C 51.2°F10.7°C 67% - N16091.8 kmh N -- 29.59 in1002.0 mb 0.00 in0.0 mm 0.00 in/hr0.0 mm/hr 0.00 in0.0 mm
02:50 PM 62.8°F17.1°C 51.4°F10.8°C 66% - N16091.8 kmh N -- 29.59 in1002.0 mb 0.00 in0.0 mm 0.00 in/hr0.0 mm/hr 0.00 in0.0 mm
02:45 PM 63.0°F17.2°C 51.7°F10.9°C 67% - N16091.8 kmh N -- 29.59 in1002.0 mb 0.00 in0.0 mm 0.00 in/hr0.0 mm/hr 0.00 in0.0 mm
02:40 PM 62.8°F17.1°C 52.0°F11.1°C 68% - N16091.8 kmh N -- 29.59 in1002.0 mb 0.00 in0.0 mm 0.00 in/hr0.0 mm/hr 0.00 in0.0 mm
02:35 PM 62.1°F16.7°C 51.8°F11.0°C 69% - N16091.8 kmh N -- 29.59 in1002.0 mb 0.00 in0.0 mm 0.00 in/hr0.0 mm/hr 0.00 in0.0 mm
02:30 PM 61.9°F16.6°C 52.0°F11.1°C 70% - N16091.8 kmh N -- 29.59 in1002.0 mb 0.00 in0.0 mm 0.00 in/hr0.0 mm/hr 0.00 in0.0 mm
02:25 PM 61.7°F16.5°C 51.2°F10.7°C 68% - N16091.8 kmh N -- 29.59 in1002.0 mb 0.00 in0.0 mm 0.00 in/hr0.0 mm/hr 0.00 in0.0 mm
02:20 PM 61.6°F16.4°C 52.3°F11.3°C 72% - N16091.8 kmh N -- 29.60 in1002.4 mb 0.00 in0.0 mm 0.00 in/hr0.0 mm/hr 0.00 in0.0 mm
02:15 PM 61.0°F16.1°C 51.3°F10.7°C 70% - N16091.8 kmh N -- 29.62 in1003.0 mb 0.00 in0.0 mm 0.00 in/hr0.0 mm/hr 0.00 in0.0 mm
02:10 PM 60.6°F15.9°C 51.0°F10.6°C 71% - N16091.8 kmh N -- 29.62 in1003.0 mb 0.00 in0.0 mm 0.00 in/hr0.0 mm/hr 0.00 in0.0 mm
02:05 PM 60.4°F15.8°C 51.3°F10.7°C 72% - N16091.8 kmh N -- 29.62 in1003.0 mb 0.00 in0.0 mm 0.00 in/hr0.0 mm/hr 0.00 in0.0 mm
02:00 PM 60.1°F15.6°C 51.6°F10.9°C 74% - N16091.8 kmh N -- 29.62 in1003.0 mb 0.00 in0.0 mm 0.00 in/hr0.0 mm/hr 0.00 in0.0 mm
01:55 PM 59.8°F15.4°C 51.3°F10.7°C 74% - N16091.8 kmh N -- 29.62 in1003.0 mb 0.00 in0.0 mm 0.00 in/hr0.0 mm/hr 0.00 in0.0 mm
01:50 PM 59.5°F15.3°C 50.9°F10.5°C 73% - N16091.8 kmh N -- 29.62 in1003.0 mb 0.00 in0.0 mm 0.00 in/hr0.0 mm/hr 0.00 in0.0 mm
01:45 PM 59.7°F15.4°C 51.4°F10.8°C 74% - N16091.8 kmh N -- 29.62 in1003.0 mb 0.00 in0.0 mm 0.00 in/hr0.0 mm/hr 0.00 in0.0 mm
01:40 PM 59.7°F15.4°C 51.0°F10.6°C 73% - N16091.8 kmh N -- 29.62 in1003.0 mb 0.00 in0.0 mm 0.00 in/hr0.0 mm/hr 0.00 in0.0 mm
01:35 PM 60.0°F15.6°C 51.3°F10.7°C 73% - N16091.8 kmh N -- 29.63 in1003.4 mb 0.00 in0.0 mm 0.00 in/hr0.0 mm/hr 0.00 in0.0 mm
01:30 PM 59.9°F15.5°C 51.3°F10.7°C 73% - N16091.8 kmh N -- 29.65 in1004.1 mb 0.00 in0.0 mm 0.00 in/hr0.0 mm/hr 0.00 in0.0 mm
01:25 PM 59.7°F15.4°C 51.6°F10.9°C 74% - N16091.8 kmh N -- 29.65 in1004.1 mb 0.00 in0.0 mm 0.00 in/hr0.0 mm/hr 0.00 in0.0 mm
01:20 PM 59.4°F15.2°C 51.8°F11.0°C 76% - N16091.8 kmh N -- 29.65 in1004.1 mb 0.00 in0.0 mm 0.00 in/hr0.0 mm/hr 0.00 in0.0 mm
01:15 PM 59.4°F15.2°C 51.8°F11.0°C 76% - N16091.8 kmh N -- 29.65 in1004.1 mb 0.00 in0.0 mm 0.00 in/hr0.0 mm/hr 0.00 in0.0 mm
01:10 PM 59.2°F15.1°C 52.0°F11.1°C 77% - N16091.8 kmh N -- 29.65 in1004.1 mb 0.00 in0.0 mm 0.00 in/hr0.0 mm/hr 0.00 in0.0 mm
01:05 PM 59.0°F15.0°C 52.5°F11.4°C 79% - N16091.8 kmh N -- 29.65 in1004.1 mb 0.00 in0.0 mm 0.00 in/hr0.0 mm/hr 0.00 in0.0 mm
01:00 PM 58.5°F14.7°C 52.7°F11.5°C 81% - N16091.8 kmh N -- 29.65 in1004.1 mb 0.00 in0.0 mm 0.00 in/hr0.0 mm/hr 0.00 in0.0 mm
12:55 PM 58.1°F14.5°C 52.6°F11.4°C 82% - N16091.8 kmh N -- 29.65 in1004.1 mb 0.00 in0.0 mm 0.00 in/hr0.0 mm/hr 0.00 in0.0 mm
12:50 PM 57.8°F14.3°C 52.3°F11.3°C 82% - N16091.8 kmh N -- 29.65 in1004.1 mb 0.00 in0.0 mm 0.00 in/hr0.0 mm/hr 0.00 in0.0 mm
12:45 PM 57.6°F14.2°C 52.1°F11.2°C 82% - N16091.8 kmh N -- 29.65 in1004.1 mb 0.00 in0.0 mm 0.00 in/hr0.0 mm/hr 0.00 in0.0 mm
12:40 PM 57.6°F14.2°C 52.4°F11.3°C 83% - N16091.8 kmh N -- 29.65 in1004.1 mb 0.00 in0.0 mm 0.00 in/hr0.0 mm/hr 0.00 in0.0 mm
12:35 PM 57.5°F14.2°C 52.9°F11.6°C 85% - N16091.8 kmh N -- 29.66 in1004.4 mb 0.00 in0.0 mm 0.00 in/hr0.0 mm/hr 0.00 in0.0 mm
12:30 PM 57.4°F14.1°C 53.4°F11.9°C 86% - N16091.8 kmh N -- 29.68 in1005.1 mb 0.00 in0.0 mm 0.00 in/hr0.0 mm/hr 0.00 in0.0 mm
12:25 PM 57.0°F13.9°C 53.5°F11.9°C 88% - N16091.8 kmh N -- 29.68 in1005.1 mb 0.00 in0.0 mm 0.00 in/hr0.0 mm/hr 0.00 in0.0 mm
12:20 PM 56.5°F13.6°C 53.3°F11.8°C 89% - N16091.8 kmh N -- 29.68 in1005.1 mb 0.00 in0.0 mm 0.00 in/hr0.0 mm/hr 0.00 in0.0 mm
12:15 PM 56.2°F13.4°C 53.3°F11.8°C 90% - N16091.8 kmh N -- 29.68 in1005.1 mb 0.00 in0.0 mm 0.00 in/hr0.0 mm/hr 0.00 in0.0 mm
12:10 PM 56.0°F13.3°C 53.1°F11.7°C 90% - N16091.8 kmh N -- 29.68 in1005.1 mb 0.00 in0.0 mm 0.00 in/hr0.0 mm/hr 0.00 in0.0 mm
12:05 PM 55.8°F13.2°C 52.9°F11.6°C 90% - N16091.8 kmh N -- 29.68 in1005.1 mb 0.00 in0.0 mm 0.00 in/hr0.0 mm/hr 0.00 in0.0 mm
12:00 PM 55.6°F13.1°C 52.7°F11.5°C 90% - N16091.8 kmh N -- 29.68 in1005.1 mb 0.00 in0.0 mm 0.00 in/hr0.0 mm/hr 0.00 in0.0 mm
11:55 AM 55.6°F13.1°C 52.7°F11.5°C 90% - N16091.8 kmh N -- 29.68 in1005.1 mb 0.00 in0.0 mm 0.00 in/hr0.0 mm/hr 0.00 in0.0 mm
11:50 AM 55.4°F13.0°C 52.8°F11.6°C 91% - N16091.8 kmh N -- 29.68 in1005.1 mb 0.00 in0.0 mm 0.00 in/hr0.0 mm/hr 0.00 in0.0 mm
11:45 AM 55.4°F13.0°C 53.1°F11.7°C 92% - N16091.8 kmh N -- 29.68 in1005.1 mb 0.00 in0.0 mm 0.00 in/hr0.0 mm/hr 0.00 in0.0 mm
11:40 AM 55.3°F12.9°C 53.2°F11.8°C 93% - N16091.8 kmh N -- 29.68 in1005.1 mb 0.00 in0.0 mm 0.00 in/hr0.0 mm/hr 0.00 in0.0 mm
11:35 AM 55.2°F12.9°C 53.2°F11.8°C 93% - N16091.8 kmh N -- 29.68 in1005.1 mb 0.00 in0.0 mm 0.00 in/hr0.0 mm/hr 0.00 in0.0 mm
11:30 AM 55.0°F12.8°C 53.1°F11.7°C 93% - N16091.8 kmh N -- 29.68 in1005.1 mb 0.00 in0.0 mm 0.00 in/hr0.0 mm/hr 0.00 in0.0 mm
11:25 AM 54.9°F12.7°C 52.9°F11.6°C 93% - N16091.8 kmh N -- 29.68 in1005.1 mb 0.00 in0.0 mm 0.00 in/hr0.0 mm/hr 0.00 in0.0 mm
11:20 AM 54.6°F12.6°C 52.4°F11.3°C 92% - N16091.8 kmh N -- 29.68 in1005.1 mb 0.00 in0.0 mm 0.00 in/hr0.0 mm/hr 0.00 in0.0 mm
11:15 AM 54.4°F12.4°C 52.1°F11.2°C 92% - N16091.8 kmh N -- 29.68 in1005.1 mb 0.00 in0.0 mm 0.00 in/hr0.0 mm/hr 0.00 in0.0 mm
11:10 AM 54.3°F12.4°C 52.0°F11.1°C 92% - N16091.8 kmh N -- 29.68 in1005.1 mb 0.00 in0.0 mm 0.00 in/hr0.0 mm/hr 0.00 in0.0 mm
11:05 AM 54.2°F12.3°C 51.9°F11.1°C 92% - N16091.8 kmh N -- 29.68 in1005.1 mb 0.00 in0.0 mm 0.00 in/hr0.0 mm/hr 0.00 in0.0 mm
11:00 AM 54.0°F12.2°C 51.4°F10.8°C 91% - N16091.8 kmh N -- 29.68 in1005.1 mb 0.00 in0.0 mm 0.00 in/hr0.0 mm/hr 0.00 in0.0 mm
10:55 AM 54.0°F12.2°C 51.4°F10.8°C 91% - N16091.8 kmh N -- 29.68 in1005.1 mb 0.00 in0.0 mm 0.00 in/hr0.0 mm/hr 0.00 in0.0 mm
10:50 AM 54.0°F12.2°C 51.4°F10.8°C 91% - N16091.8 kmh N -- 29.68 in1005.1 mb 0.00 in0.0 mm 0.00 in/hr0.0 mm/hr 0.00 in0.0 mm
10:45 AM 54.1°F12.3°C 51.6°F10.9°C 91% - N16091.8 kmh N -- 29.68 in1005.1 mb 0.00 in0.0 mm 0.00 in/hr0.0 mm/hr 0.00 in0.0 mm
10:40 AM 54.3°F12.4°C 51.7°F10.9°C 91% - N16091.8 kmh N -- 29.68 in1005.1 mb 0.00 in0.0 mm 0.00 in/hr0.0 mm/hr 0.00 in0.0 mm
10:35 AM 54.3°F12.4°C 51.4°F10.8°C 90% - N16091.8 kmh N -- 29.68 in1005.1 mb 0.00 in0.0 mm 0.00 in/hr0.0 mm/hr 0.00 in0.0 mm
10:30 AM 54.5°F12.5°C 51.5°F10.8°C 90% - N16091.8 kmh N -- 29.68 in1005.1 mb 0.00 in0.0 mm 0.00 in/hr0.0 mm/hr 0.00 in0.0 mm
10:25 AM 54.5°F12.5°C 51.3°F10.7°C 89% - N16091.8 kmh N -- 29.68 in1005.1 mb 0.00 in0.0 mm 0.00 in/hr0.0 mm/hr 0.00 in0.0 mm
10:20 AM 54.4°F12.4°C 51.2°F10.7°C 89% - N16091.8 kmh N -- 29.68 in1005.1 mb 0.00 in0.0 mm 0.00 in/hr0.0 mm/hr 0.00 in0.0 mm
10:15 AM 54.6°F12.6°C 51.1°F10.6°C 88% - N16091.8 kmh N -- 29.68 in1005.1 mb 0.00 in0.0 mm 0.00 in/hr0.0 mm/hr 0.00 in0.0 mm
10:10 AM 54.7°F12.6°C 51.3°F10.7°C 88% - N16091.8 kmh N -- 29.68 in1005.1 mb 0.00 in0.0 mm 0.00 in/hr0.0 mm/hr 0.00 in0.0 mm
10:05 AM 54.6°F12.6°C 51.4°F10.8°C 89% - N16091.8 kmh N -- 29.68 in1005.1 mb 0.00 in0.0 mm 0.00 in/hr0.0 mm/hr 0.00 in0.0 mm
10:00 AM 54.4°F12.4°C 51.2°F10.7°C 89% - N16091.8 kmh N -- 29.68 in1005.1 mb 0.00 in0.0 mm 0.00 in/hr0.0 mm/hr 0.00 in0.0 mm
09:55 AM 53.9°F12.2°C 50.7°F10.4°C 89% - N16091.8 kmh N -- 29.68 in1005.1 mb 0.00 in0.0 mm 0.00 in/hr0.0 mm/hr 0.00 in0.0 mm
09:50 AM 53.7°F12.1°C 50.5°F10.3°C 89% - N16091.8 kmh N -- 29.68 in1005.1 mb 0.00 in0.0 mm 0.00 in/hr0.0 mm/hr 0.00 in0.0 mm
09:45 AM 53.4°F11.9°C 50.6°F10.3°C 90% - N16091.8 kmh N -- 29.68 in1005.1 mb 0.00 in0.0 mm 0.00 in/hr0.0 mm/hr 0.00 in0.0 mm
09:40 AM 53.4°F11.9°C 50.5°F10.3°C 90% - N16091.8 kmh N -- 29.68 in1005.1 mb 0.00 in0.0 mm 0.00 in/hr0.0 mm/hr 0.00 in0.0 mm
09:35 AM 53.2°F11.8°C 50.7°F10.4°C 91% - N16091.8 kmh N -- 29.68 in1005.1 mb 0.00 in0.0 mm 0.00 in/hr0.0 mm/hr 0.00 in0.0 mm
09:30 AM 53.1°F11.7°C 50.8°F10.4°C 92% - N16091.8 kmh N -- 29.68 in1005.1 mb 0.00 in0.0 mm 0.00 in/hr0.0 mm/hr 0.00 in0.0 mm
09:25 AM 53.0°F11.7°C 50.7°F10.4°C 92% - N16091.8 kmh N -- 29.68 in1005.1 mb 0.00 in0.0 mm 0.00 in/hr0.0 mm/hr 0.00 in0.0 mm
09:20 AM 52.9°F11.6°C 50.8°F10.4°C 92% - N16091.8 kmh N -- 29.68 in1005.1 mb 0.00 in0.0 mm 0.00 in/hr0.0 mm/hr 0.00 in0.0 mm
09:15 AM 52.9°F11.6°C 50.9°F10.5°C 93% - N16091.8 kmh N -- 29.68 in1005.1 mb 0.00 in0.0 mm 0.00 in/hr0.0 mm/hr 0.00 in0.0 mm
09:10 AM 52.8°F11.6°C 50.9°F10.5°C 93% - N16091.8 kmh N -- 29.68 in1005.1 mb 0.00 in0.0 mm 0.00 in/hr0.0 mm/hr 0.00 in0.0 mm
09:05 AM 52.4°F11.3°C 50.5°F10.3°C 93% - N16091.8 kmh N -- 29.68 in1005.1 mb 0.00 in0.0 mm 0.00 in/hr0.0 mm/hr 0.00 in0.0 mm
09:00 AM 52.2°F11.2°C 50.2°F10.1°C 93% - N16091.8 kmh N -- 29.65 in1004.1 mb 0.00 in0.0 mm 0.00 in/hr0.0 mm/hr 0.00 in0.0 mm
08:55 AM 52.2°F11.2°C 50.2°F10.1°C 93% - N16091.8 kmh N -- 29.65 in1004.1 mb 0.00 in0.0 mm 0.00 in/hr0.0 mm/hr 0.00 in0.0 mm
08:50 AM 52.2°F11.2°C 50.5°F10.3°C 94% - N16091.8 kmh N -- 29.65 in1004.1 mb 0.00 in0.0 mm 0.00 in/hr0.0 mm/hr 0.00 in0.0 mm
08:45 AM 52.2°F11.2°C 50.6°F10.3°C 94% - N16091.8 kmh N -- 29.65 in1004.1 mb 0.00 in0.0 mm 0.00 in/hr0.0 mm/hr 0.00 in0.0 mm
08:40 AM 52.1°F11.2°C 50.4°F10.2°C 94% - N16091.8 kmh N -- 29.65 in1004.1 mb 0.00 in0.0 mm 0.00 in/hr0.0 mm/hr 0.00 in0.0 mm
08:35 AM 52.0°F11.1°C 50.3°F10.2°C 94% - N16091.8 kmh N -- 29.65 in1004.1 mb 0.00 in0.0 mm 0.00 in/hr0.0 mm/hr 0.00 in0.0 mm
08:30 AM 52.0°F11.1°C 50.3°F10.2°C 94% - N16091.8 kmh N -- 29.65 in1004.1 mb 0.00 in0.0 mm 0.00 in/hr0.0 mm/hr 0.00 in0.0 mm
08:25 AM 52.0°F11.1°C 50.3°F10.2°C 94% - N16091.8 kmh N -- 29.65 in1004.1 mb 0.00 in0.0 mm 0.00 in/hr0.0 mm/hr 0.00 in0.0 mm
08:20 AM 52.0°F11.1°C 50.3°F10.2°C 94% - N16091.8 kmh N -- 29.65 in1004.1 mb 0.00 in0.0 mm 0.00 in/hr0.0 mm/hr 0.00 in0.0 mm
08:15 AM 52.0°F11.1°C 50.4°F10.2°C 94% - N16091.8 kmh N -- 29.65 in1004.1 mb 0.00 in0.0 mm 0.00 in/hr0.0 mm/hr 0.00 in0.0 mm
08:10 AM 52.0°F11.1°C 50.6°F10.3°C 95% - N16091.8 kmh N -- 29.65 in1004.1 mb 0.00 in0.0 mm 0.00 in/hr0.0 mm/hr 0.00 in0.0 mm
08:05 AM 51.9°F11.1°C 50.5°F10.3°C 95% - N16091.8 kmh N -- 29.65 in1004.1 mb 0.00 in0.0 mm 0.00 in/hr0.0 mm/hr 0.00 in0.0 mm
08:00 AM 51.8°F11.0°C 50.4°F10.2°C 95% - N16091.8 kmh N -- 29.65 in1004.1 mb 0.00 in0.0 mm 0.00 in/hr0.0 mm/hr 0.00 in0.0 mm
07:55 AM 51.7°F10.9°C 50.3°F10.2°C 95% - N16091.8 kmh N -- 29.65 in1004.1 mb 0.00 in0.0 mm 0.00 in/hr0.0 mm/hr 0.00 in0.0 mm
07:50 AM 51.8°F11.0°C 50.4°F10.2°C 95% - N16091.8 kmh N -- 29.65 in1004.1 mb 0.00 in0.0 mm 0.00 in/hr0.0 mm/hr 0.00 in0.0 mm
07:45 AM 51.8°F11.0°C 50.4°F10.2°C 95% - N16091.8 kmh N -- 29.65 in1004.1 mb 0.00 in0.0 mm 0.00 in/hr0.0 mm/hr 0.00 in0.0 mm
07:40 AM 51.8°F11.0°C 50.6°F10.3°C 96% - N16091.8 kmh N -- 29.65 in1004.1 mb 0.00 in0.0 mm 0.00 in/hr0.0 mm/hr 0.00 in0.0 mm
07:35 AM 51.9°F11.1°C 50.8°F10.4°C 96% - N16091.8 kmh N -- 29.65 in1004.1 mb 0.00 in0.0 mm 0.00 in/hr0.0 mm/hr 0.00 in0.0 mm
07:30 AM 52.0°F11.1°C 51.2°F10.7°C 97% - N16091.8 kmh N -- 29.65 in1004.1 mb 0.00 in0.0 mm 0.00 in/hr0.0 mm/hr 0.00 in0.0 mm
07:25 AM 51.9°F11.1°C 51.2°F10.7°C 97% - N16091.8 kmh N -- 29.65 in1004.1 mb 0.00 in0.0 mm 0.00 in/hr0.0 mm/hr 0.00 in0.0 mm
07:20 AM 51.8°F11.0°C 51.3°F10.7°C 98% - N16091.8 kmh N -- 29.65 in1004.1 mb 0.00 in0.0 mm 0.00 in/hr0.0 mm/hr 0.00 in0.0 mm
07:15 AM 51.7°F10.9°C 51.1°F10.6°C 98% - N16091.8 kmh N -- 29.62 in1003.0 mb 0.00 in0.0 mm 0.00 in/hr0.0 mm/hr 0.00 in0.0 mm
07:10 AM 51.7°F10.9°C 51.1°F10.6°C 98% - N16091.8 kmh N -- 29.62 in1003.0 mb 0.00 in0.0 mm 0.00 in/hr0.0 mm/hr 0.00 in0.0 mm
07:05 AM 51.7°F10.9°C 51.2°F10.7°C 98% - N16091.8 kmh N -- 29.63 in1003.4 mb 0.00 in0.0 mm 0.00 in/hr0.0 mm/hr 0.00 in0.0 mm
07:00 AM 51.6°F10.9°C 51.1°F10.6°C 98% - N16091.8 kmh N -- 29.65 in1004.1 mb 0.00 in0.0 mm 0.00 in/hr0.0 mm/hr 0.00 in0.0 mm
06:55 AM 51.6°F10.9°C 51.0°F10.6°C 98% - N16091.8 kmh N -- 29.65 in1004.1 mb 0.00 in0.0 mm 0.00 in/hr0.0 mm/hr 0.00 in0.0 mm
06:50 AM 51.3°F10.7°C 50.7°F10.4°C 98% - N16091.8 kmh N -- 29.65 in1004.1 mb 0.00 in0.0 mm 0.00 in/hr0.0 mm/hr 0.00 in0.0 mm
06:45 AM 51.3°F10.7°C 50.7°F10.4°C 98% - N16091.8 kmh N -- 29.65 in1004.1 mb 0.00 in0.0 mm 0.00 in/hr0.0 mm/hr 0.00 in0.0 mm
06:40 AM 50.8°F10.4°C 50.3°F10.2°C 98% - N16091.8 kmh N -- 29.65 in1004.1 mb 0.00 in0.0 mm 0.00 in/hr0.0 mm/hr 0.00 in0.0 mm
06:35 AM 50.6°F10.3°C 50.1°F10.1°C 98% - N16091.8 kmh N -- 29.65 in1004.1 mb 0.00 in0.0 mm 0.00 in/hr0.0 mm/hr 0.00 in0.0 mm
06:30 AM 50.4°F10.2°C 49.9°F9.9°C 98% - N16091.8 kmh N -- 29.62 in1003.0 mb 0.00 in0.0 mm 0.00 in/hr0.0 mm/hr 0.00 in0.0 mm
06:25 AM 50.3°F10.2°C 49.8°F9.9°C 98% - N16091.8 kmh N -- 29.62 in1003.0 mb 0.00 in0.0 mm 0.00 in/hr0.0 mm/hr 0.00 in0.0 mm
06:20 AM 50.2°F10.1°C 49.6°F9.8°C 98% - N16091.8 kmh N -- 29.62 in1003.0 mb 0.00 in0.0 mm 0.00 in/hr0.0 mm/hr 0.00 in0.0 mm
06:15 AM 50.2°F10.1°C 49.6°F9.8°C 98% - N16091.8 kmh N -- 29.62 in1003.0 mb 0.00 in0.0 mm 0.00 in/hr0.0 mm/hr 0.00 in0.0 mm
06:10 AM 50.2°F10.1°C 49.6°F9.8°C 98% - N16091.8 kmh N -- 29.62 in1003.0 mb 0.00 in0.0 mm 0.00 in/hr0.0 mm/hr 0.00 in0.0 mm
06:05 AM 50.2°F10.1°C 49.6°F9.8°C 98% - N16091.8 kmh N -- 29.62 in1003.0 mb 0.00 in0.0 mm 0.00 in/hr0.0 mm/hr 0.00 in0.0 mm
06:00 AM 50.2°F10.1°C 49.6°F9.8°C 98% - N16091.8 kmh N -- 29.62 in1003.0 mb 0.00 in0.0 mm 0.00 in/hr0.0 mm/hr 0.00 in0.0 mm
05:55 AM 50.1°F10.1°C 49.5°F9.7°C 98% - N16091.8 kmh N -- 29.62 in1003.0 mb 0.00 in0.0 mm 0.00 in/hr0.0 mm/hr 0.00 in0.0 mm
05:50 AM 50.0°F10.0°C 49.5°F9.7°C 98% - N16091.8 kmh N -- 29.62 in1003.0 mb 0.00 in0.0 mm 0.00 in/hr0.0 mm/hr 0.00 in0.0 mm
05:45 AM 49.8°F9.9°C 49.3°F9.6°C 98% - N16091.8 kmh N -- 29.62 in1003.0 mb 0.00 in0.0 mm 0.00 in/hr0.0 mm/hr 0.00 in0.0 mm
05:40 AM 49.5°F9.7°C 49.0°F9.4°C 98% - N16091.8 kmh N -- 29.62 in1003.0 mb 0.00 in0.0 mm 0.00 in/hr0.0 mm/hr 0.00 in0.0 mm
05:35 AM 49.5°F9.7°C 48.9°F9.4°C 98% - N16091.8 kmh N -- 29.62 in1003.0 mb 0.00 in0.0 mm 0.00 in/hr0.0 mm/hr 0.00 in0.0 mm
05:30 AM 49.3°F9.6°C 48.8°F9.3°C 98% - N16091.8 kmh N -- 29.62 in1003.0 mb 0.00 in0.0 mm 0.00 in/hr0.0 mm/hr 0.00 in0.0 mm
05:25 AM 49.2°F9.6°C 48.6°F9.2°C 98% - N16091.8 kmh N -- 29.62 in1003.0 mb 0.00 in0.0 mm 0.00 in/hr0.0 mm/hr 0.00 in0.0 mm
05:20 AM 49.1°F9.5°C 48.6°F9.2°C 98% - N16091.8 kmh N -- 29.62 in1003.0 mb 0.00 in0.0 mm 0.00 in/hr0.0 mm/hr 0.00 in0.0 mm
05:15 AM 49.1°F9.5°C 48.6°F9.2°C 98% - N16091.8 kmh N -- 29.59 in1002.0 mb 0.00 in0.0 mm 0.00 in/hr0.0 mm/hr 0.00 in0.0 mm
05:10 AM 49.0°F9.4°C 48.5°F9.2°C 98% - N16091.8 kmh N -- 29.59 in1002.0 mb 0.00 in0.0 mm 0.00 in/hr0.0 mm/hr 0.00 in0.0 mm
05:05 AM 49.0°F9.4°C 48.5°F9.2°C 98% - N16091.8 kmh N -- 29.59 in1002.0 mb 0.00 in0.0 mm 0.00 in/hr0.0 mm/hr 0.00 in0.0 mm
05:00 AM 48.7°F9.3°C 48.2°F9.0°C 98% - N16091.8 kmh N -- 29.59 in1002.0 mb 0.00 in0.0 mm 0.00 in/hr0.0 mm/hr 0.00 in0.0 mm
04:55 AM 48.3°F9.1°C 47.8°F8.8°C 98% - N16091.8 kmh N -- 29.59 in1002.0 mb 0.00 in0.0 mm 0.00 in/hr0.0 mm/hr 0.00 in0.0 mm
04:50 AM 47.9°F8.8°C 47.4°F8.6°C 98% - N16091.8 kmh N -- 29.59 in1002.0 mb 0.00 in0.0 mm 0.00 in/hr0.0 mm/hr 0.00 in0.0 mm
04:45 AM 47.5°F8.6°C 47.0°F8.3°C 98% - N16091.8 kmh N -- 29.59 in1002.0 mb 0.00 in0.0 mm 0.00 in/hr0.0 mm/hr 0.00 in0.0 mm
04:40 AM 47.1°F8.4°C 46.6°F8.1°C 98% - N16091.8 kmh N -- 29.59 in1002.0 mb 0.00 in0.0 mm 0.00 in/hr0.0 mm/hr 0.00 in0.0 mm
04:35 AM 46.8°F8.2°C 46.2°F7.9°C 98% - N16091.8 kmh N -- 29.59 in1002.0 mb 0.00 in0.0 mm 0.00 in/hr0.0 mm/hr 0.00 in0.0 mm
04:30 AM 46.6°F8.1°C 46.1°F7.8°C 98% - N16091.8 kmh N -- 29.59 in1002.0 mb 0.00 in0.0 mm 0.00 in/hr0.0 mm/hr 0.00 in0.0 mm
04:25 AM 46.3°F7.9°C 45.8°F7.7°C 98% - N16091.8 kmh N -- 29.59 in1002.0 mb 0.00 in0.0 mm 0.00 in/hr0.0 mm/hr 0.00 in0.0 mm
04:20 AM 46.0°F7.8°C 45.5°F7.5°C 98% - N16091.8 kmh N -- 29.59 in1002.0 mb 0.00 in0.0 mm 0.00 in/hr0.0 mm/hr 0.00 in0.0 mm
04:15 AM 45.4°F7.4°C 44.9°F7.2°C 98% - N16091.8 kmh N -- 29.59 in1002.0 mb 0.00 in0.0 mm 0.00 in/hr0.0 mm/hr 0.00 in0.0 mm
04:10 AM 45.0°F7.2°C 44.5°F6.9°C 98% - N16091.8 kmh N -- 29.59 in1002.0 mb 0.00 in0.0 mm 0.00 in/hr0.0 mm/hr 0.00 in0.0 mm
04:05 AM 44.8°F7.1°C 44.3°F6.8°C 98% - N16091.8 kmh N -- 29.59 in1002.0 mb 0.00 in0.0 mm 0.00 in/hr0.0 mm/hr 0.00 in0.0 mm
04:00 AM 44.8°F7.1°C 44.2°F6.8°C 98% - N16091.8 kmh N -- 29.59 in1002.0 mb 0.00 in0.0 mm 0.00 in/hr0.0 mm/hr 0.00 in0.0 mm
03:55 AM 44.6°F7.0°C 44.1°F6.7°C 98% - N16091.8 kmh N -- 29.59 in1002.0 mb 0.00 in0.0 mm 0.00 in/hr0.0 mm/hr 0.00 in0.0 mm
03:50 AM 44.4°F6.9°C 43.9°F6.6°C 98% - N16091.8 kmh N -- 29.60 in1002.4 mb 0.00 in0.0 mm 0.00 in/hr0.0 mm/hr 0.00 in0.0 mm
03:45 AM 44.2°F6.8°C 43.7°F6.5°C 98% - N16091.8 kmh N -- 29.62 in1003.0 mb 0.00 in0.0 mm 0.00 in/hr0.0 mm/hr 0.00 in0.0 mm
03:40 AM 44.2°F6.8°C 43.6°F6.4°C 98% - N16091.8 kmh N -- 29.62 in1003.0 mb 0.00 in0.0 mm 0.00 in/hr0.0 mm/hr 0.00 in0.0 mm
03:35 AM 44.1°F6.7°C 43.5°F6.4°C 98% - N16091.8 kmh N -- 29.62 in1003.0 mb 0.00 in0.0 mm 0.00 in/hr0.0 mm/hr 0.00 in0.0 mm
03:30 AM 44.1°F6.7°C 43.5°F6.4°C 98% - N16091.8 kmh N -- 29.62 in1003.0 mb 0.00 in0.0 mm 0.00 in/hr0.0 mm/hr 0.00 in0.0 mm
03:25 AM 44.1°F6.7°C 43.5°F6.4°C 98% - N16091.8 kmh N -- 29.62 in1003.0 mb 0.00 in0.0 mm 0.00 in/hr0.0 mm/hr 0.00 in0.0 mm
03:20 AM 44.1°F6.7°C 43.5°F6.4°C 98% - N16091.8 kmh N -- 29.62 in1003.0 mb 0.00 in0.0 mm 0.00 in/hr0.0 mm/hr 0.00 in0.0 mm
03:15 AM 44.0°F6.7°C 43.4°F6.3°C 98% - N16091.8 kmh N -- 29.62 in1003.0 mb 0.00 in0.0 mm 0.00 in/hr0.0 mm/hr 0.00 in0.0 mm
03:10 AM 43.7°F6.5°C 43.2°F6.2°C 98% - N16091.8 kmh N -- 29.62 in1003.0 mb 0.00 in0.0 mm 0.00 in/hr0.0 mm/hr 0.00 in0.0 mm
03:05 AM 43.7°F6.5°C 43.2°F6.2°C 98% - N16091.8 kmh N -- 29.62 in1003.0 mb 0.00 in0.0 mm 0.00 in/hr0.0 mm/hr 0.00 in0.0 mm
03:00 AM 43.6°F6.4°C 43.1°F6.2°C 98% - N16091.8 kmh N -- 29.62 in1003.0 mb 0.00 in0.0 mm 0.00 in/hr0.0 mm/hr 0.00 in0.0 mm
02:55 AM 43.4°F6.3°C 42.9°F6.1°C 98% - N16091.8 kmh N -- 29.62 in1003.0 mb 0.00 in0.0 mm 0.00 in/hr0.0 mm/hr 0.00 in0.0 mm
02:50 AM 43.3°F6.3°C 42.8°F6.0°C 98% - N16091.8 kmh N -- 29.62 in1003.0 mb 0.00 in0.0 mm 0.00 in/hr0.0 mm/hr 0.00 in0.0 mm
02:45 AM 43.0°F6.1°C 42.5°F5.8°C 98% - N16091.8 kmh N -- 29.62 in1003.0 mb 0.00 in0.0 mm 0.00 in/hr0.0 mm/hr 0.00 in0.0 mm
02:40 AM 42.8°F6.0°C 42.3°F5.7°C 98% - N16091.8 kmh N -- 29.62 in1003.0 mb 0.00 in0.0 mm 0.00 in/hr0.0 mm/hr 0.00 in0.0 mm
02:35 AM 42.4°F5.8°C 41.9°F5.5°C 98% - N16091.8 kmh N -- 29.63 in1003.4 mb 0.00 in0.0 mm 0.00 in/hr0.0 mm/hr 0.00 in0.0 mm
02:30 AM 42.1°F5.6°C 41.6°F5.3°C 98% - N16091.8 kmh N -- 29.65 in1004.1 mb 0.00 in0.0 mm 0.00 in/hr0.0 mm/hr 0.00 in0.0 mm
02:25 AM 42.1°F5.6°C 41.6°F5.3°C 98% - N16091.8 kmh N -- 29.65 in1004.1 mb 0.00 in0.0 mm 0.00 in/hr0.0 mm/hr 0.00 in0.0 mm
02:20 AM 42.1°F5.6°C 41.6°F5.3°C 98% - N16091.8 kmh N -- 29.65 in1004.1 mb 0.00 in0.0 mm 0.00 in/hr0.0 mm/hr 0.00 in0.0 mm
02:15 AM 41.9°F5.5°C 41.4°F5.2°C 98% - N16091.8 kmh N -- 29.65 in1004.1 mb 0.00 in0.0 mm 0.00 in/hr0.0 mm/hr 0.00 in0.0 mm
02:10 AM 41.8°F5.4°C 41.3°F5.2°C 98% - N16091.8 kmh N -- 29.65 in1004.1 mb 0.00 in0.0 mm 0.00 in/hr0.0 mm/hr 0.00 in0.0 mm
02:05 AM 41.6°F5.3°C 41.1°F5.1°C 98% - N16091.8 kmh N -- 29.65 in1004.1 mb 0.00 in0.0 mm 0.00 in/hr0.0 mm/hr 0.00 in0.0 mm
02:00 AM 41.3°F5.2°C 40.8°F4.9°C 98% - N16091.8 kmh N -- 29.65 in1004.1 mb 0.00 in0.0 mm 0.00 in/hr0.0 mm/hr 0.00 in0.0 mm
01:55 AM 41.1°F5.1°C 40.6°F4.8°C 98% - N16091.8 kmh N -- 29.65 in1004.1 mb 0.00 in0.0 mm 0.00 in/hr0.0 mm/hr 0.00 in0.0 mm
01:50 AM 40.9°F4.9°C 40.2°F4.6°C 97% - N16091.8 kmh N -- 29.65 in1004.1 mb 0.00 in0.0 mm 0.00 in/hr0.0 mm/hr 0.00 in0.0 mm
01:45 AM 40.6°F4.8°C 39.9°F4.4°C 97% - N16091.8 kmh N -- 29.65 in1004.1 mb 0.00 in0.0 mm 0.00 in/hr0.0 mm/hr 0.00 in0.0 mm
01:40 AM 40.6°F4.8°C 39.9°F4.4°C 97% - N16091.8 kmh N -- 29.65 in1004.1 mb 0.00 in0.0 mm 0.00 in/hr0.0 mm/hr 0.00 in0.0 mm
01:35 AM 40.6°F4.8°C 39.9°F4.4°C 97% - N16091.8 kmh N -- 29.66 in1004.4 mb 0.00 in0.0 mm 0.00 in/hr0.0 mm/hr 0.00 in0.0 mm
01:30 AM 40.6°F4.8°C 39.9°F4.4°C 97% - N16091.8 kmh N -- 29.68 in1005.1 mb 0.00 in0.0 mm 0.00 in/hr0.0 mm/hr 0.00 in0.0 mm
01:25 AM 40.6°F4.8°C 39.9°F4.4°C 97% - N16091.8 kmh N -- 29.68 in1005.1 mb 0.00 in0.0 mm 0.00 in/hr0.0 mm/hr 0.00 in0.0 mm
01:20 AM 40.6°F4.8°C 39.9°F4.4°C 97% - N16091.8 kmh N -- 29.68 in1005.1 mb 0.00 in0.0 mm 0.00 in/hr0.0 mm/hr 0.00 in0.0 mm
01:15 AM 40.6°F4.8°C 39.9°F4.4°C 97% - N16091.8 kmh N -- 29.68 in1005.1 mb 0.00 in0.0 mm 0.00 in/hr0.0 mm/hr 0.00 in0.0 mm
01:10 AM 40.6°F4.8°C 39.9°F4.4°C 97% - N16091.8 kmh N -- 29.68 in1005.1 mb 0.00 in0.0 mm 0.00 in/hr0.0 mm/hr 0.00 in0.0 mm
01:05 AM 40.8°F4.9°C 40.0°F4.4°C 97% - N16091.8 kmh N -- 29.68 in1005.1 mb 0.00 in0.0 mm 0.00 in/hr0.0 mm/hr 0.00 in0.0 mm
01:00 AM 40.6°F4.8°C 40.0°F4.4°C 98% - N16091.8 kmh N -- 29.68 in1005.1 mb 0.00 in0.0 mm 0.00 in/hr0.0 mm/hr 0.00 in0.0 mm
12:55 AM 40.6°F4.8°C 40.1°F4.5°C 98% - N16091.8 kmh N -- 29.68 in1005.1 mb 0.00 in0.0 mm 0.00 in/hr0.0 mm/hr 0.00 in0.0 mm
12:50 AM 40.6°F4.8°C 40.1°F4.5°C 98% - N16091.8 kmh N -- 29.68 in1005.1 mb 0.00 in0.0 mm 0.00 in/hr0.0 mm/hr 0.00 in0.0 mm
12:45 AM 40.6°F4.8°C 40.1°F4.5°C 98% - N16091.8 kmh N -- 29.68 in1005.1 mb 0.00 in0.0 mm 0.00 in/hr0.0 mm/hr 0.00 in0.0 mm
12:40 AM 40.5°F4.7°C 39.9°F4.4°C 98% - N16091.8 kmh N -- 29.68 in1005.1 mb 0.00 in0.0 mm 0.00 in/hr0.0 mm/hr 0.00 in0.0 mm
12:35 AM 40.4°F4.7°C 39.9°F4.4°C 98% - N16091.8 kmh N -- 29.68 in1005.1 mb 0.00 in0.0 mm 0.00 in/hr0.0 mm/hr 0.00 in0.0 mm
12:30 AM 40.2°F4.6°C 39.7°F4.3°C 98% - N16091.8 kmh N -- 29.68 in1005.1 mb 0.00 in0.0 mm 0.00 in/hr0.0 mm/hr 0.00 in0.0 mm
12:25 AM 39.9°F4.4°C 39.4°F4.1°C 98% - N16091.8 kmh N -- 29.68 in1005.1 mb 0.00 in0.0 mm 0.00 in/hr0.0 mm/hr 0.00 in0.0 mm
12:20 AM 39.9°F4.4°C 39.4°F4.1°C 98% - N16091.8 kmh N -- 29.69 in1005.4 mb 0.00 in0.0 mm 0.00 in/hr0.0 mm/hr 0.00 in0.0 mm
12:15 AM 39.8°F4.3°C 39.3°F4.1°C 98% - N16091.8 kmh N -- 29.71 in1006.1 mb 0.00 in0.0 mm 0.00 in/hr0.0 mm/hr 0.00 in0.0 mm
12:10 AM 39.5°F4.2°C 39.0°F3.9°C 98% - N16091.8 kmh N -- 29.71 in1006.1 mb 0.00 in0.0 mm 0.00 in/hr0.0 mm/hr 0.00 in0.0 mm
12:05 AM 39.1°F3.9°C 38.6°F3.7°C 98% - N16091.8 kmh N -- 29.71 in1006.1 mb 0.00 in0.0 mm 0.00 in/hr0.0 mm/hr 0.00 in0.0 mm
12:00 AM 38.8°F3.8°C 38.3°F3.5°C 98% - N16091.8 kmh N -- 29.71 in1006.1 mb 0.00 in0.0 mm 0.00 in/hr0.0 mm/hr 0.00 in0.0 mm